Time;durP1;ratioP1;P1;durP2;ratioP2;P2;SDS_P1;SDS_P2;PMS_P1;PMS_P2;Temp;Humidity;BMP_temperature;BMP_pressure;BME280_temperature;BME280_humidity;BME280_pressure;Samples;Min_cycle;Max_cycle;Signal;HPM_P1;HPM_P2
2022/07/04 00:00:40;;;;;;;9.10;3.53;;;;;;;11.72;100.00;102129.00;5051316;28;20089;-81
2022/07/04 00:03:06;;;;;;;9.20;3.35;;;;;;;11.71;100.00;102131.78;5049959;28;20120;-83
2022/07/04 00:05:31;;;;;;;7.03;2.85;;;;;;;11.71;100.00;102131.78;5049339;28;20143;-81
2022/07/04 00:07:57;;;;;;;10.90;2.97;;;;;;;11.69;100.00;102126.56;5051012;28;20044;-81
2022/07/04 00:10:22;;;;;;;5.68;2.40;;;;;;;11.68;100.00;102132.03;5051046;28;20088;-81
2022/07/04 00:12:49;;;;;;;9.73;2.83;;;;;;;11.64;100.00;102132.25;5050815;28;20470;-80
2022/07/04 00:15:14;;;;;;;8.45;2.70;;;;;;;11.62;100.00;102123.50;5050736;28;20036;-82
2022/07/04 00:17:40;;;;;;;6.63;2.42;;;;;;;11.62;100.00;102126.16;5049190;28;20033;-80
2022/07/04 00:20:07;;;;;;;5.03;2.05;;;;;;;11.61;100.00;102120.94;5051182;28;20036;-80
2022/07/04 00:22:33;;;;;;;5.70;2.10;;;;;;;11.59;100.00;102112.22;5050632;28;20033;-82
2022/07/04 00:24:58;;;;;;;6.85;2.28;;;;;;;11.57;100.00;102114.13;5051266;28;20037;-82
2022/07/04 00:27:24;;;;;;;5.72;2.25;;;;;;;11.55;100.00;102114.25;5049105;28;20126;-82
2022/07/04 00:29:50;;;;;;;5.40;2.20;;;;;;;11.54;100.00;102112.56;5050628;28;20116;-82
2022/07/04 00:32:15;;;;;;;5.20;1.83;;;;;;;11.50;100.00;102105.75;5050287;28;20104;-82
2022/07/04 00:34:40;;;;;;;4.88;1.90;;;;;;;11.50;100.00;102108.44;5049229;28;20044;-82
2022/07/04 00:37:06;;;;;;;4.15;2.10;;;;;;;11.47;100.00;102104.16;5048899;28;20188;-83
2022/07/04 00:39:31;;;;;;;5.63;2.00;;;;;;;11.49;100.00;102105.88;5050495;28;20029;-82
2022/07/04 00:41:57;;;;;;;5.47;2.30;;;;;;;11.49;100.00;102112.03;5048541;28;20053;-82
2022/07/04 00:44:22;;;;;;;7.00;2.08;;;;;;;11.51;100.00;102104.81;5049205;28;20025;-82
2022/07/04 00:46:48;;;;;;;7.20;2.47;;;;;;;11.52;100.00;102105.66;5049128;28;20199;-82
2022/07/04 00:49:16;;;;;;;4.32;1.98;;;;;;;11.51;100.00;102107.47;5050304;28;20076;-82
2022/07/04 00:51:43;;;;;;;7.43;1.85;;;;;;;11.52;100.00;102100.31;5050792;28;20037;-82
2022/07/04 00:54:12;;;;;;;7.05;1.95;;;;;;;11.49;100.00;102106.72;5048698;28;20033;-82
2022/07/04 00:56:40;;;;;;;3.33;1.60;;;;;;;11.47;100.00;102101.50;5050451;28;20045;-82
2022/07/04 00:59:07;;;;;;;5.93;2.10;;;;;;;11.47;100.00;102098.84;5050508;28;20162;-82
2022/07/04 01:01:33;;;;;;;4.80;1.75;;;;;;;11.45;100.00;102091.94;5049466;28;20089;-82
2022/07/04 01:04:00;;;;;;;7.13;1.80;;;;;;;11.49;100.00;102095.22;5032084;28;20025;-81
2022/07/04 01:06:26;;;;;;;4.57;1.95;;;;;;;11.50;100.00;102097.78;5050039;28;20033;-82
2022/07/04 01:08:51;;;;;;;4.90;2.25;;;;;;;11.49;100.00;102095.22;5049416;28;20059;-82
2022/07/04 01:11:17;;;;;;;6.68;2.05;;;;;;;11.49;100.00;102092.56;5050214;28;20094;-82
2022/07/04 01:13:43;;;;;;;9.30;2.72;;;;;;;11.50;100.00;102094.25;5050329;28;20028;-83
2022/07/04 01:16:10;;;;;;;8.43;2.03;;;;;;;11.49;100.00;102088.06;5049068;28;20040;-81
2022/07/04 01:18:36;;;;;;;5.88;1.83;;;;;;;11.51;100.00;102087.94;5049628;28;20036;-80
2022/07/04 01:21:01;;;;;;;5.32;2.40;;;;;;;11.53;100.00;102086.88;5050288;28;20029;-81
2022/07/04 01:23:27;;;;;;;4.53;2.05;;;;;;;11.56;100.00;102081.31;5048805;28;20037;-80
2022/07/04 01:25:52;;;;;;;5.20;1.98;;;;;;;11.58;100.00;102078.53;5049907;28;20045;-81
2022/07/04 01:28:19;;;;;;;6.68;2.10;;;;;;;11.59;100.00;102081.06;5048692;28;20347;-81
2022/07/04 01:30:45;;;;;;;7.15;2.05;;;;;;;11.58;100.00;102075.88;5048629;28;20116;-81
2022/07/04 01:33:10;;;;;;;4.05;1.85;;;;;;;11.58;100.00;102082.03;5048382;28;20116;-80
2022/07/04 01:35:36;;;;;;;5.90;2.33;;;;;;;11.59;100.00;102080.25;5048439;28;20123;-80
2022/07/04 01:38:01;;;;;;;11.93;3.17;;;;;;;11.60;100.00;102085.47;5048216;28;20398;-82
2022/07/04 01:40:27;;;;;;;7.57;2.95;;;;;;;11.64;100.00;102083.41;5050185;28;20494;-82
2022/07/04 01:42:53;;;;;;;8.25;2.45;;;;;;;11.69;100.00;102078.59;5049663;28;20056;-82
2022/07/04 01:45:18;;;;;;;6.45;2.38;;;;;;;11.71;100.00;102076.63;5048330;28;20141;-81
2022/07/04 01:47:43;;;;;;;7.93;2.70;;;;;;;11.74;100.00;102078.22;5049618;28;20420;-82
2022/07/04 01:50:13;;;;;;;5.55;2.63;;;;;;;11.76;100.00;102082.50;5049642;28;20449;-80
2022/07/04 01:52:39;;;;;;;8.13;3.08;;;;;;;11.78;100.00;102079.72;5048586;28;20117;-80
2022/07/04 01:55:06;;;;;;;5.63;2.20;;;;;;;11.81;100.00;102079.47;5049897;28;20102;-80
2022/07/04 01:57:32;;;;;;;5.38;2.20;;;;;;;11.80;100.00;102080.44;5049806;28;20037;-81
2022/07/04 02:02:41;;;;;;;5.82;2.30;;;;;;;11.76;100.00;102068.28;5049854;28;20098;-80
2022/07/04 02:05:07;;;;;;;8.23;2.53;;;;;;;11.82;100.00;102079.34;5048194;28;20029;-80
2022/07/04 02:07:32;;;;;;;7.75;2.58;;;;;;;11.83;100.00;102073.03;5049416;28;20026;-80
2022/07/04 02:09:58;;;;;;;9.00;3.40;;;;;;;11.88;100.00;102075.34;5049647;28;20307;-80
2022/07/04 02:15:07;;;;;;;16.73;3.47;;;;;;;11.95;100.00;102075.78;5053524;28;20373;-80
2022/07/04 02:17:34;;;;;;;8.57;2.70;;;;;;;11.95;100.00;102075.78;5035052;28;20041;-80
2022/07/04 02:19:59;;;;;;;10.27;2.58;;;;;;;11.95;100.00;102078.44;5051123;28;20449;-81
2022/07/04 02:22:25;;;;;;;6.10;2.53;;;;;;;11.92;100.00;102083.97;5034809;28;20108;-80
2022/07/04 02:24:50;;;;;;;10.00;2.90;;;;;;;11.90;100.00;102081.44;5053035;28;20029;-81
2022/07/04 02:27:16;;;;;;;9.15;2.65;;;;;;;11.94;100.00;102088.25;5053465;28;20049;-80
2022/07/04 02:29:42;;;;;;;9.23;2.50;;;;;;;12.01;100.00;102085.13;5052901;28;20453;-80
2022/07/04 02:32:07;;;;;;;10.93;3.10;;;;;;;12.04;100.00;102076.88;5052582;28;20056;-80
2022/07/04 02:34:33;;;;;;;9.52;2.78;;;;;;;12.03;100.00;102083.19;5053480;28;20398;-80
2022/07/04 02:36:58;;;;;;;12.23;2.92;;;;;;;12.04;100.00;102083.06;5053344;28;20452;-81
2022/07/04 02:39:24;;;;;;;8.30;2.67;;;;;;;12.00;100.00;102078.91;5052574;28;20074;-81
2022/07/04 02:41:49;;;;;;;8.07;2.40;;;;;;;11.94;100.00;102074.06;5052108;28;20060;-81
2022/07/04 02:44:15;;;;;;;6.10;2.72;;;;;;;11.87;100.00;102080.78;5052710;28;20045;-81
2022/07/04 02:46:40;;;;;;;8.27;2.40;;;;;;;11.79;100.00;102068.91;5052844;28;20045;-80
2022/07/04 02:49:05;;;;;;;4.93;2.25;;;;;;;11.75;100.00;102069.28;5034403;28;20063;-81
2022/07/04 02:51:31;;;;;;;9.88;2.75;;;;;;;11.68;100.00;102065.38;5052686;28;20115;-81
2022/07/04 02:53:56;;;;;;;10.05;2.67;;;;;;;11.64;100.00;102073.59;5050956;28;20041;-81
2022/07/04 02:56:22;;;;;;;5.75;2.17;;;;;;;11.59;100.00;102075.75;5051172;28;20082;-80
2022/07/04 02:58:47;;;;;;;4.60;2.63;;;;;;;11.55;100.00;102076.09;5051104;28;20020;-81
2022/07/04 03:01:12;;;;;;;6.70;2.53;;;;;;;11.55;100.00;102082.25;5052607;28;20033;-80
2022/07/04 03:03:39;;;;;;;8.82;2.40;;;;;;;11.58;100.00;102079.38;5052237;28;20128;-80
2022/07/04 03:06:07;;;;;;;4.93;2.30;;;;;;;11.62;100.00;102088.84;5051302;28;20300;-81
2022/07/04 03:08:33;;;;;;;9.23;2.90;;;;;;;11.64;100.00;102083.41;5052075;28;20154;-80
2022/07/04 03:10:59;;;;;;;11.75;3.30;;;;;;;11.67;100.00;102088.50;5034322;28;20123;-81
2022/07/04 03:13:24;;;;;;;11.00;3.10;;;;;;;11.76;100.00;102086.94;5050826;28;20029;-81
2022/07/04 03:15:51;;;;;;;12.98;3.63;;;;;;;11.83;100.00;102081.03;5052102;28;20041;-80
2022/07/04 03:18:16;;;;;;;12.98;3.53;;;;;;;11.85;100.00;102080.06;5052092;28;20032;-80
2022/07/04 03:20:42;;;;;;;11.15;2.88;;;;;;;11.85;100.00;102088.91;5051701;28;20033;-80
2022/07/04 03:23:07;;;;;;;14.18;4.35;;;;;;;11.85;100.00;102080.06;5051023;28;20033;-82
2022/07/04 03:25:32;;;;;;;9.27;2.63;;;;;;;11.86;100.00;102079.13;5050419;28;20036;-82
2022/07/04 03:27:58;;;;;;;13.43;3.28;;;;;;;11.87;100.00;102083.47;5051513;28;20371;-82
2022/07/04 03:30:23;;;;;;;9.48;2.92;;;;;;;11.86;100.00;102081.78;5051544;28;20040;-82
2022/07/04 03:32:48;;;;;;;7.57;2.80;;;;;;;11.83;100.00;102089.03;5033812;28;20029;-82
2022/07/04 03:35:14;;;;;;;13.63;3.22;;;;;;;11.81;100.00;102093.66;5033068;28;20330;-82
2022/07/04 03:37:39;;;;;;;8.20;2.72;;;;;;;11.81;100.00;102082.13;5033839;28;20043;-82
2022/07/04 03:40:06;;;;;;;11.77;3.65;;;;;;;11.84;100.00;102089.91;5050275;28;20028;-81
2022/07/04 03:42:31;;;;;;;11.27;3.47;;;;;;;11.87;100.00;102088.78;5051332;28;20129;-82
2022/07/04 03:44:56;;;;;;;11.77;3.75;;;;;;;11.87;100.00;102081.66;5051496;28;20120;-84
2022/07/04 03:47:22;;;;;;;16.30;3.53;;;;;;;11.88;100.00;102087.84;5050198;28;20135;-82
2022/07/04 03:49:48;;;;;;;10.07;2.83;;;;;;;11.89;100.00;102092.22;5051511;28;20075;-81
2022/07/04 03:52:13;;;;;;;7.90;4.00;;;;;;;11.92;100.00;102106.16;5051628;28;20104;-82
2022/07/04 03:54:38;;;;;;;10.50;3.38;;;;;;;11.94;100.00;102090.94;5050320;28;20037;-82
2022/07/04 03:57:04;;;;;;;13.98;3.83;;;;;;;12.00;100.00;102100.25;5049924;28;20033;-82
2022/07/04 03:59:30;;;;;;;13.50;3.63;;;;;;;12.04;100.00;102098.22;5050134;28;20033;-81
2022/07/04 04:01:55;;;;;;;9.65;2.83;;;;;;;12.06;100.00;102102.47;5049590;28;20151;-81
2022/07/04 04:07:04;;;;;;;5.85;2.58;;;;;;;12.04;100.00;102103.56;5051596;28;20059;-81
2022/07/04 04:09:30;;;;;;;8.10;2.83;;;;;;;12.01;100.00;102101.97;5051089;28;20037;-81
2022/07/04 04:11:55;;;;;;;12.77;3.00;;;;;;;12.00;100.00;102105.59;5049641;28;20045;-81
2022/07/04 04:14:20;;;;;;;4.72;2.38;;;;;;;11.96;100.00;102113.00;5051026;28;20399;-81
2022/07/04 04:16:46;;;;;;;10.13;2.90;;;;;;;11.95;100.00;102111.28;5051398;28;20120;-81
2022/07/04 04:19:11;;;;;;;8.95;2.55;;;;;;;11.93;100.00;102107.06;5050995;28;20087;-81
2022/07/04 04:21:37;;;;;;;7.65;3.05;;;;;;;11.94;100.00;102112.28;5049494;28;20367;-81
2022/07/04 04:24:03;;;;;;;10.68;3.20;;;;;;;11.95;100.00;102113.09;5049197;28;20109;-81
2022/07/04 04:26:29;;;;;;;8.88;2.80;;;;;;;11.95;100.00;102115.78;5050980;28;20041;-81
2022/07/04 04:28:54;;;;;;;11.98;3.53;;;;;;;11.98;100.00;102118.22;5050874;28;20028;-82
2022/07/04 04:31:20;;;;;;;10.55;2.88;;;;;;;11.98;100.00;102112.88;5050971;28;20366;-80
2022/07/04 04:33:45;;;;;;;8.45;3.00;;;;;;;11.99;100.00;102110.09;5049860;28;20111;-82
2022/07/04 04:36:10;;;;;;;12.60;3.35;;;;;;;12.04;100.00;102119.56;5049030;28;20033;-81
2022/07/04 04:38:36;;;;;;;5.63;2.72;;;;;;;12.07;100.00;102120.16;5051327;28;20083;-81
2022/07/04 04:41:01;;;;;;;6.57;2.63;;;;;;;12.12;100.00;102119.81;5051886;28;20072;-80
2022/07/04 04:43:27;;;;;;;13.40;3.38;;;;;;;12.23;100.00;102133.19;5050873;28;20439;-80
2022/07/04 04:45:52;;;;;;;12.57;3.65;;;;;;;12.41;100.00;102127.41;5051503;28;20041;-80
2022/07/04 04:48:18;;;;;;;8.75;3.40;;;;;;;12.60;100.00;102134.78;5051087;28;20116;-81
2022/07/04 04:50:43;;;;;;;12.32;4.05;;;;;;;12.81;100.00;102135.78;5050368;28;20033;-79
2022/07/04 04:53:09;;;;;;;15.10;4.18;;;;;;;13.02;100.00;102143.91;5050179;28;20273;-80
2022/07/04 04:55:35;;;;;;;9.00;2.80;;;;;;;13.23;100.00;102148.47;5051625;28;20040;-80
2022/07/04 04:58:01;;;;;;;18.55;4.00;;;;;;;13.38;100.00;102149.09;5052050;28;20029;-81
2022/07/04 05:00:26;;;;;;;11.63;3.40;;;;;;;13.45;100.00;102154.75;5050509;28;20039;-81
2022/07/04 05:02:51;;;;;;;8.57;2.78;;;;;;;13.45;100.00;102160.13;5050638;28;20479;-80
2022/07/04 05:05:17;;;;;;;10.18;2.65;;;;;;;13.46;100.00;102148.47;5051795;28;20433;-81
2022/07/04 05:07:42;;;;;;;7.47;2.70;;;;;;;13.48;100.00;102151.84;5049489;28;20172;-81
2022/07/04 05:10:09;;;;;;;11.38;2.72;;;;;;;13.51;100.00;102157.81;5050841;28;20029;-82
2022/07/04 05:12:34;;;;;;;10.30;3.92;;;;;;;13.58;100.00;102150.09;5051365;28;20044;-81
2022/07/04 05:15:00;;;;;;;5.03;2.83;;;;;;;13.72;100.00;102148.97;5051023;28;20057;-81
2022/07/04 05:17:25;;;;;;;8.43;3.35;;;;;;;13.95;100.00;102156.91;5050147;28;20131;-81
2022/07/04 05:19:51;;;;;;;8.57;2.47;;;;;;;14.19;100.00;102162.84;5049979;28;20492;-81
2022/07/04 05:22:16;;;;;;;11.13;2.50;;;;;;;14.43;100.00;102153.69;5049857;28;20068;-79
2022/07/04 05:24:42;;;;;;;5.50;2.08;;;;;;;14.66;100.00;102157.09;5048729;28;20091;-80
2022/07/04 05:27:07;;;;;;;6.50;2.30;;;;;;;14.85;100.00;102159.00;5049484;28;20025;-80
2022/07/04 05:29:33;;;;;;;4.13;1.75;;;;;;;14.97;100.00;102160.59;5049627;28;20334;-81
2022/07/04 05:31:58;;;;;;;4.57;1.67;;;;;;;15.03;100.00;102153.00;5049671;28;20112;-81
2022/07/04 05:34:24;;;;;;;2.55;1.60;;;;;;;15.09;100.00;102156.00;5048226;28;20186;-80
2022/07/04 05:36:49;;;;;;;4.53;1.83;;;;;;;15.11;100.00;102159.38;5048470;28;20443;-80
2022/07/04 05:39:15;;;;;;;5.57;2.05;;;;;;;15.09;100.00;102160.47;5048412;28;20044;-79
2022/07/04 05:41:40;;;;;;;5.57;1.85;;;;;;;15.04;100.00;102166.25;5049121;28;20457;-80
2022/07/04 05:44:06;;;;;;;4.20;1.58;;;;;;;14.97;100.00;102157.94;5049760;28;20060;-83
2022/07/04 05:46:31;;;;;;;5.53;2.00;;;;;;;14.97;100.00;102154.38;5050635;28;20060;-81
2022/07/04 05:48:57;;;;;;;5.10;1.80;;;;;;;15.01;100.00;102154.97;5035241;28;20059;-81
2022/07/04 05:51:22;;;;;;;2.63;1.83;;;;;;;15.13;100.00;102151.19;5053380;28;20036;-81
2022/07/04 05:53:48;;;;;;;3.72;1.85;;;;;;;15.21;99.27;102162.09;5053368;28;20059;-81
2022/07/04 05:56:13;;;;;;;3.28;1.60;;;;;;;15.35;99.11;102150.13;5053216;28;20112;-81
2022/07/04 05:58:40;;;;;;;5.43;1.75;;;;;;;15.50;97.51;102153.25;5052221;28;20025;-81
2022/07/04 06:01:06;;;;;;;5.22;1.70;;;;;;;15.65;96.83;102157.19;5053701;28;20124;-81
2022/07/04 06:03:31;;;;;;;4.18;1.70;;;;;;;15.78;91.19;102145.34;5053278;28;20060;-81
2022/07/04 06:05:57;;;;;;;7.45;1.77;;;;;;;15.93;90.47;102138.59;5051924;28;20033;-81
2022/07/04 06:08:23;;;;;;;4.18;1.42;;;;;;;16.13;91.31;102144.75;5051880;28;20186;-81
2022/07/04 06:10:48;;;;;;;3.80;1.90;;;;;;;16.32;90.38;102145.75;5051732;28;20037;-81
2022/07/04 06:13:14;;;;;;;1.60;1.50;;;;;;;16.53;92.07;102141.00;5053236;28;20047;-81
2022/07/04 06:15:39;;;;;;;4.60;1.50;;;;;;;16.72;90.77;102139.25;5053505;28;20093;-81
2022/07/04 06:18:05;;;;;;;3.85;1.50;;;;;;;16.90;84.95;102142.03;5051949;28;20041;-81
2022/07/04 06:20:30;;;;;;;2.83;1.52;;;;;;;17.08;85.53;102134.00;5053474;28;20041;-81
2022/07/04 06:22:56;;;;;;;4.10;1.63;;;;;;;17.20;82.37;102132.78;5051736;28;20422;-82
2022/07/04 06:25:22;;;;;;;1.77;1.25;;;;;;;17.31;78.55;102129.03;5051511;28;20082;-80
2022/07/04 06:27:49;;;;;;;3.80;1.42;;;;;;;17.44;77.62;102121.44;5053311;28;20033;-80
2022/07/04 06:30:16;;;;;;;2.03;1.20;;;;;;;17.55;74.80;102132.97;5052938;28;20035;-79
2022/07/04 06:32:55;;;;;;;3.50;1.50;;;;;;;17.63;73.00;102133.06;5051531;28;20053;-80
2022/07/04 06:38:09;;;;;;;1.73;1.30;;;;;;;17.81;74.33;102133.03;5052787;28;20410;-76
2022/07/04 06:40:35;;;;;;;2.40;1.40;;;;;;;17.97;74.07;102141.28;5051139;28;20029;-76
2022/07/04 06:43:01;;;;;;;2.72;1.50;;;;;;;18.01;71.75;102143.66;5052487;28;20052;-77
2022/07/04 06:45:26;;;;;;;3.92;1.40;;;;;;;18.02;71.92;102148.88;5050882;28;20036;-74
2022/07/04 06:47:52;;;;;;;3.53;1.55;;;;;;;18.12;71.75;102151.47;5052052;28;20033;-76
2022/07/04 06:50:17;;;;;;;2.17;1.45;;;;;;;18.18;72.40;102153.53;5052647;28;20025;-76
2022/07/04 06:52:43;;;;;;;2.67;1.42;;;;;;;18.22;72.37;102159.47;5052023;28;20052;-76
2022/07/04 06:55:09;;;;;;;4.38;1.70;;;;;;;18.30;70.84;102148.72;5052190;28;20112;-77
2022/07/04 06:57:34;;;;;;;3.70;1.60;;;;;;;18.45;71.66;102157.06;5050900;28;20426;-76
2022/07/04 07:00:00;;;;;;;4.20;1.52;;;;;;;18.55;69.48;102143.50;5051907;28;20076;-76
2022/07/04 07:02:26;;;;;;;5.28;1.30;;;;;;;18.60;70.11;102144.72;5050490;28;20057;-76
2022/07/04 07:04:51;;;;;;;3.97;1.50;;;;;;;18.65;70.33;102147.75;5052382;28;20036;-77
2022/07/04 07:07:16;;;;;;;4.40;1.85;;;;;;;18.70;70.57;102141.06;5052009;28;20088;-77
2022/07/04 07:09:42;;;;;;;3.80;1.50;;;;;;;18.77;69.88;102147.50;5052057;28;20051;-77
2022/07/04 07:12:07;;;;;;;2.42;1.30;;;;;;;18.88;68.74;102143.69;5051633;28;20055;-77
2022/07/04 07:14:33;;;;;;;2.65;1.35;;;;;;;19.00;69.81;102145.06;5051909;28;20080;-77
2022/07/04 07:16:59;;;;;;;4.03;1.48;;;;;;;19.09;67.75;102146.78;5051699;28;20029;-77
2022/07/04 07:19:24;;;;;;;1.52;1.20;;;;;;;19.09;67.75;102141.38;5051949;28;20064;-75
2022/07/04 07:21:50;;;;;;;5.28;1.67;;;;;;;19.16;66.91;102142.44;5052261;28;20072;-77
2022/07/04 07:24:15;;;;;;;6.72;2.00;;;;;;;19.23;63.75;102141.75;5052025;28;20167;-76
2022/07/04 07:26:40;;;;;;;1.33;1.20;;;;;;;19.28;63.60;102140.25;5051457;28;20123;-76
2022/07/04 07:29:06;;;;;;;5.28;1.75;;;;;;;19.49;63.09;102144.34;5051640;28;20033;-74
2022/07/04 07:31:32;;;;;;;3.30;1.67;;;;;;;19.57;61.19;102152.44;5051605;28;20036;-77
2022/07/04 07:33:57;;;;;;;4.68;1.63;;;;;;;19.66;60.50;102147.91;5051739;28;20128;-78
2022/07/04 07:36:22;;;;;;;10.73;1.77;;;;;;;19.70;61.30;102154.66;5052370;28;20086;-76
2022/07/04 07:38:48;;;;;;;4.30;1.50;;;;;;;19.81;60.70;102143.59;5050821;28;20033;-77
2022/07/04 07:41:13;;;;;;;4.47;1.60;;;;;;;19.89;59.09;102150.84;5051707;28;20366;-78
2022/07/04 07:43:39;;;;;;;2.45;1.30;;;;;;;20.07;60.17;102158.75;5050089;28;20080;-77
2022/07/04 07:46:08;;;;;;;3.70;1.80;;;;;;;20.20;57.41;102155.53;5051737;28;20354;-77
2022/07/04 07:48:34;;;;;;;2.65;1.30;;;;;;;20.45;58.54;102156.31;5051407;28;20041;-78
2022/07/04 07:51:00;;;;;;;5.68;1.80;;;;;;;20.84;57.34;102158.28;5051519;28;20516;-77
2022/07/04 07:53:26;;;;;;;4.72;1.40;;;;;;;21.16;54.51;102161.84;5051209;28;20045;-78
2022/07/04 07:55:51;;;;;;;3.60;1.55;;;;;;;21.54;53.18;102159.28;5049833;28;20036;-79
2022/07/04 07:58:17;;;;;;;3.47;1.50;;;;;;;21.84;51.94;102168.34;5051779;28;20037;-80
2022/07/04 08:00:42;;;;;;;2.95;1.50;;;;;;;21.86;52.12;102161.94;5049782;28;20063;-77
2022/07/04 08:05:52;;;;;;;4.35;1.63;;;;;;;21.80;52.23;102177.03;5051523;28;20174;-79
2022/07/04 08:08:17;;;;;;;5.40;1.92;;;;;;;21.47;51.62;102179.94;5049644;28;20437;-77
2022/07/04 08:10:43;;;;;;;2.92;1.70;;;;;;;21.29;54.25;102177.50;5050988;28;20029;-81
2022/07/04 08:13:08;;;;;;;4.10;1.50;;;;;;;21.18;54.34;102186.84;5051168;28;20127;-77
2022/07/04 08:15:34;;;;;;;4.15;1.45;;;;;;;21.20;53.50;102197.50;5049761;28;20036;-75
2022/07/04 08:18:00;;;;;;;2.67;1.30;;;;;;;21.19;55.01;102195.84;5050821;28;20525;-76
2022/07/04 08:20:25;;;;;;;4.22;1.20;;;;;;;21.17;54.92;102203.25;5050906;28;20454;-77
2022/07/04 08:22:51;;;;;;;4.93;1.65;;;;;;;21.14;54.97;102205.31;5050915;28;20033;-77
2022/07/04 08:25:16;;;;;;;4.45;1.30;;;;;;;21.22;54.35;102206.31;5050966;28;20056;-77
2022/07/04 08:27:42;;;;;;;2.97;1.40;;;;;;;21.12;54.16;102210.06;5050942;28;20426;-74
2022/07/04 08:30:08;;;;;;;5.28;1.77;;;;;;;21.19;52.87;102212.91;5050809;28;20025;-74
2022/07/04 08:32:34;;;;;;;2.42;1.27;;;;;;;21.15;50.81;102216.97;5049627;28;20056;-76
2022/07/04 08:34:59;;;;;;;3.60;1.25;;;;;;;21.06;52.52;102210.75;5050899;28;20037;-75
2022/07/04 08:37:25;;;;;;;2.70;1.38;;;;;;;21.11;53.28;102216.50;5050337;28;20040;-74
2022/07/04 08:39:50;;;;;;;1.80;1.50;;;;;;;21.19;54.04;102218.31;5050285;28;20044;-76
2022/07/04 08:42:18;;;;;;;2.63;1.27;;;;;;;21.21;52.92;102218.97;5050769;28;20181;-74
2022/07/04 08:44:51;;;;;;;4.38;1.80;;;;;;;21.21;51.42;102220.84;5050550;28;20053;-76
2022/07/04 08:47:19;;;;;;;2.60;1.33;;;;;;;21.26;52.33;102218.47;5050646;28;20029;-76
2022/07/04 08:49:59;;;;;;;3.63;1.63;;;;;;;21.71;49.70;102213.34;5050683;28;20112;-76
2022/07/04 08:52:39;;;;;;;3.42;1.48;;;;;;;21.55;48.93;102219.69;5051150;28;20335;-78
2022/07/04 09:00:36;;;;;;;6.13;1.30;;;;;;;23.73;47.08;102222.31;5050717;28;20095;-78
2022/07/04 09:03:03;;;;;;;7.00;1.40;;;;;;;24.23;43.67;102221.56;5050614;28;20086;-79
2022/07/04 09:05:31;;;;;;;2.58;1.40;;;;;;;24.77;41.97;102228.25;5050409;28;20108;-77
2022/07/04 09:07:58;;;;;;;3.72;1.55;;;;;;;24.27;41.91;102226.44;5050391;28;20039;-76
2022/07/04 09:10:24;;;;;;;8.60;1.70;;;;;;;23.73;42.33;102232.38;5049004;28;20091;-77
2022/07/04 09:12:49;;;;;;;2.13;1.42;;;;;;;23.52;45.35;102227.75;5050396;28;20140;-77
2022/07/04 09:15:15;;;;;;;3.83;1.80;;;;;;;23.50;43.99;102227.94;5050682;28;20049;-76
2022/07/04 09:17:41;;;;;;;3.75;1.60;;;;;;;24.35;44.56;102228.16;5049991;28;20098;-76
2022/07/04 09:20:15;;;;;;;5.45;1.45;;;;;;;24.82;39.92;102226.59;5050302;28;20496;-82
2022/07/04 09:22:41;;;;;;;2.03;1.40;;;;;;;25.43;38.73;102224.19;5053742;28;20065;-79
2022/07/04 09:25:07;;;;;;;7.32;1.35;;;;;;;25.74;40.01;102226.34;5054498;28;20474;-82
2022/07/04 09:27:37;;;;;;;3.47;1.40;;;;;;;26.16;39.39;102223.47;5053092;28;20175;-80
2022/07/04 09:30:04;;;;;;;2.40;1.10;;;;;;;26.50;37.88;102233.31;5053132;28;20037;-80
2022/07/04 09:32:38;;;;;;;4.80;1.33;;;;;;;25.79;36.96;102228.47;5054166;28;20449;-83
2022/07/04 09:35:07;;;;;;;2.58;1.20;;;;;;;25.12;38.08;102231.78;5054072;28;20058;-79
2022/07/04 09:37:46;;;;;;;3.25;1.40;;;;;;;25.02;40.76;102230.47;5054107;28;20150;-77
2022/07/04 09:40:22;;;;;;;5.15;1.48;;;;;;;25.11;40.47;102223.81;5053970;28;20175;-79
2022/07/04 09:42:48;;;;;;;2.88;1.13;;;;;;;25.73;39.16;102218.38;5053922;28;20080;-80
2022/07/04 09:45:13;;;;;;;3.53;1.05;;;;;;;26.23;37.30;102216.16;5054060;28;20041;-79
2022/07/04 09:47:40;;;;;;;3.60;1.30;;;;;;;26.70;37.11;102222.38;5054026;28;20037;-80
2022/07/04 09:50:09;;;;;;;4.22;1.63;;;;;;;27.60;36.17;102215.28;5053716;28;20117;-79
2022/07/04 09:53:03;;;;;;;2.45;1.30;;;;;;;28.08;34.25;102212.06;5053916;28;20372;-80
2022/07/04 09:55:31;;;;;;;3.13;1.10;;;;;;;28.33;33.57;102213.91;5043996;28;20051;-79
2022/07/04 09:58:02;;;;;;;4.80;1.40;;;;;;;27.69;33.35;102224.06;5053383;28;20073;-78
2022/07/04 10:00:29;;;;;;;;;;;;;;;27.90;33.14;102214.66;5053723;28;20037;-78
2022/07/04 10:02:56;;;;;;;4.15;1.40;;;;;;;28.34;34.46;102209.31;5052895;28;19988;-81
2022/07/04 10:05:27;;;;;;;2.47;1.30;;;;;;;28.54;32.75;102209.09;5053388;28;20424;-79
2022/07/04 10:07:56;;;;;;;;;;;;;;;28.28;33.06;102219.25;5053957;28;20184;-80
2022/07/04 10:10:27;;;;;;;7.63;1.23;;;;;;;28.16;33.37;102216.41;5053520;28;19924;-80
2022/07/04 10:13:00;;;;;;;2.40;1.20;;;;;;;28.19;32.24;102220.59;5053408;28;20383;-79
2022/07/04 10:15:26;;;;;;;3.95;1.42;;;;;;;26.93;34.78;102212.84;5052131;28;20103;-80
2022/07/04 10:17:52;;;;;;;3.13;1.20;;;;;;;26.65;36.16;102219.44;5053479;28;20477;-81
2022/07/04 10:20:17;;;;;;;2.22;1.48;;;;;;;27.25;34.46;102213.78;5053227;28;20029;-76
2022/07/04 10:22:43;;;;;;;5.85;1.38;;;;;;;28.13;33.72;102217.66;5053213;28;20341;-82
2022/07/04 10:25:10;;;;;;;2.47;1.23;;;;;;;28.41;31.89;102226.47;5053595;28;20025;-82
2022/07/04 10:27:36;;;;;;;3.83;1.40;;;;;;;27.56;33.18;102216.81;5053327;28;20425;-82
2022/07/04 10:30:05;;;;;;;3.67;1.20;;;;;;;27.44;33.35;102222.97;5053136;28;20036;-80
2022/07/04 10:32:32;;;;;;;5.20;1.40;;;;;;;27.59;34.13;102230.88;5053222;28;20051;-79
2022/07/04 10:34:57;;;;;;;5.45;1.52;;;;;;;27.73;34.03;102220.69;5052980;28;20025;-78
2022/07/04 10:37:23;;;;;;;3.80;1.27;;;;;;;27.65;31.66;102218.22;5052939;28;20334;-80
2022/07/04 10:39:49;;;;;;;2.38;1.20;;;;;;;28.25;32.09;102220.50;5052600;28;20043;-81
2022/07/04 10:42:25;;;;;;;3.63;1.23;;;;;;;28.89;31.43;102208.50;5052876;28;20084;-76
2022/07/04 10:44:50;;;;;;;2.15;1.20;;;;;;;28.74;29.51;102220.69;5051049;28;20044;-78
2022/07/04 10:47:25;;;;;;;3.80;1.35;;;;;;;28.54;32.24;102211.81;5052459;28;20069;-76
2022/07/04 10:49:51;;;;;;;1.75;1.30;;;;;;;29.45;33.42;102204.63;5052316;28;20147;-81
2022/07/04 10:52:18;;;;;;;1.77;1.15;;;;;;;29.28;30.69;102206.38;5052097;28;20033;-77
2022/07/04 10:54:44;;;;;;;1.88;1.10;;;;;;;29.72;29.79;102207.81;5052419;28;20051;-78
2022/07/04 10:57:24;;;;;;;2.13;1.27;;;;;;;29.51;30.91;102211.09;5052561;28;20033;-78
2022/07/04 10:59:52;;;;;;;1.63;1.02;;;;;;;27.91;29.87;102216.34;5052073;28;20090;-77
2022/07/04 11:02:17;;;;;;;2.33;1.05;;;;;;;26.46;32.45;102214.84;5051990;28;20044;-77
2022/07/04 11:04:54;;;;;;;3.92;1.00;;;;;;;26.73;33.66;102212.94;5051135;28;20132;-76
2022/07/04 11:07:39;;;;;;;2.72;0.95;;;;;;;26.62;30.74;102208.94;5052625;28;20079;-78
2022/07/04 11:13:07;;;;;;;1.30;0.98;;;;;;;27.15;31.38;102205.22;5052327;28;20032;-78
2022/07/04 11:15:32;;;;;;;1.98;1.00;;;;;;;26.27;33.27;102192.00;5050729;28;20052;-78
2022/07/04 11:17:58;;;;;;;4.28;1.20;;;;;;;25.94;34.81;102198.28;5050728;28;20060;-78
2022/07/04 11:20:25;;;;;;;1.83;1.10;;;;;;;25.99;33.16;102212.13;5050315;28;20033;-79
2022/07/04 11:22:50;;;;;;;4.18;1.00;;;;;;;25.94;33.06;102209.19;5052200;28;20111;-79
2022/07/04 11:25:16;;;;;;;3.05;1.10;;;;;;;25.77;35.20;102206.03;5051964;28;20051;-79
2022/07/04 11:27:42;;;;;;;2.92;1.00;;;;;;;26.44;33.85;102201.44;5051855;28;20093;-80
2022/07/04 11:30:09;;;;;;;2.70;1.00;;;;;;;27.46;30.15;102195.41;5050179;28;20044;-75
2022/07/04 11:32:36;;;;;;;3.72;1.10;;;;;;;27.38;29.58;102198.41;5049864;28;20033;-79
2022/07/04 11:35:03;;;;;;;2.60;1.08;;;;;;;27.35;31.35;102190.63;5051803;28;20033;-78
2022/07/04 11:37:29;;;;;;;8.68;1.27;;;;;;;27.23;30.13;102198.66;5051007;28;20067;-76